<?xml version="1.0" encoding="UTF-8" standalone="no" ?>
<gpx xmlns="http://www.topografix.com/GPX/1/1" xmlns:xsi="http://www.w3.org/2001/XMLSchema-instance" xsi:schemaLocation="http://www.topografix.com/GPX/1/1 http://www.topografix.com/GPX/1/1/gpx.xsd" version="1.1" creator="VisuGPX - https://www.visugpx.com">
  <metadata>
    <name>Déconfinement.</name>
    <desc><![CDATA[Reprise progressive de l'activité physique après confinement. Parcours au bord de l'Adour.

]]></desc>
  </metadata>
  <trk>
    <name><![CDATA[12 mai 2020 à 13:40:05]]></name>
    <cmt><![CDATA[12 mai 2020 à 13:40:05]]></cmt>
    <trkseg>
      <trkpt lat="43.23434" lon="0.08184">
        <ele>310</ele>
        <time>2020-05-12T11:40:05Z</time>
      </trkpt>
      <trkpt lat="43.23434" lon="0.08185">
        <ele>310</ele>
        <time>2020-05-12T11:40:06Z</time>
      </trkpt>
      <trkpt lat="43.23406" lon="0.08197">
        <ele>311</ele>
        <time>2020-05-12T11:40:38Z</time>
      </trkpt>
      <trkpt lat="43.23384" lon="0.08199">
        <ele>311</ele>
        <time>2020-05-12T11:40:53Z</time>
      </trkpt>
      <trkpt lat="43.23354" lon="0.08195">
        <ele>311</ele>
        <time>2020-05-12T11:41:14Z</time>
      </trkpt>
      <trkpt lat="43.23338" lon="0.08204">
        <ele>311</ele>
        <time>2020-05-12T11:41:24Z</time>
      </trkpt>
      <trkpt lat="43.23323" lon="0.08204">
        <ele>311</ele>
        <time>2020-05-12T11:41:34Z</time>
      </trkpt>
      <trkpt lat="43.23294" lon="0.08196">
        <ele>312</ele>
        <time>2020-05-12T11:41:55Z</time>
      </trkpt>
      <trkpt lat="43.23267" lon="0.08175">
        <ele>312</ele>
        <time>2020-05-12T11:42:22Z</time>
      </trkpt>
      <trkpt lat="43.23238" lon="0.08182">
        <ele>313</ele>
        <time>2020-05-12T11:42:43Z</time>
      </trkpt>
      <trkpt lat="43.23223" lon="0.0819">
        <ele>313</ele>
        <time>2020-05-12T11:42:57Z</time>
      </trkpt>
      <trkpt lat="43.23201" lon="0.08216">
        <ele>313</ele>
        <time>2020-05-12T11:43:20Z</time>
      </trkpt>
      <trkpt lat="43.23193" lon="0.08236">
        <ele>313</ele>
        <time>2020-05-12T11:43:29Z</time>
      </trkpt>
      <trkpt lat="43.23186" lon="0.08299">
        <ele>314</ele>
        <time>2020-05-12T11:44:06Z</time>
      </trkpt>
      <trkpt lat="43.23175" lon="0.08343">
        <ele>314</ele>
        <time>2020-05-12T11:44:36Z</time>
      </trkpt>
      <trkpt lat="43.23173" lon="0.08364">
        <ele>314</ele>
        <time>2020-05-12T11:44:49Z</time>
      </trkpt>
      <trkpt lat="43.23173" lon="0.08386">
        <ele>314</ele>
        <time>2020-05-12T11:45:02Z</time>
      </trkpt>
      <trkpt lat="43.23169" lon="0.08417">
        <ele>314</ele>
        <time>2020-05-12T11:45:22Z</time>
      </trkpt>
      <trkpt lat="43.23169" lon="0.08438">
        <ele>314</ele>
        <time>2020-05-12T11:45:33Z</time>
      </trkpt>
      <trkpt lat="43.23173" lon="0.08457">
        <ele>314</ele>
        <time>2020-05-12T11:45:43Z</time>
      </trkpt>
      <trkpt lat="43.23171" lon="0.08467">
        <ele>314</ele>
        <time>2020-05-12T11:45:49Z</time>
      </trkpt>
      <trkpt lat="43.23177" lon="0.085">
        <ele>315</ele>
        <time>2020-05-12T11:46:11Z</time>
      </trkpt>
      <trkpt lat="43.23187" lon="0.08529">
        <ele>315</ele>
        <time>2020-05-12T11:46:31Z</time>
      </trkpt>
      <trkpt lat="43.23196" lon="0.08573">
        <ele>315</ele>
        <time>2020-05-12T11:46:57Z</time>
      </trkpt>
      <trkpt lat="43.232" lon="0.08582">
        <ele>315</ele>
        <time>2020-05-12T11:47:03Z</time>
      </trkpt>
      <trkpt lat="43.23205" lon="0.08603">
        <ele>315</ele>
        <time>2020-05-12T11:47:16Z</time>
      </trkpt>
      <trkpt lat="43.23204" lon="0.08624">
        <ele>315</ele>
        <time>2020-05-12T11:47:28Z</time>
      </trkpt>
      <trkpt lat="43.23206" lon="0.08636">
        <ele>315</ele>
        <time>2020-05-12T11:47:37Z</time>
      </trkpt>
      <trkpt lat="43.23204" lon="0.08648">
        <ele>315</ele>
        <time>2020-05-12T11:47:45Z</time>
      </trkpt>
      <trkpt lat="43.23199" lon="0.08668">
        <ele>315</ele>
        <time>2020-05-12T11:47:58Z</time>
      </trkpt>
      <trkpt lat="43.23191" lon="0.08725">
        <ele>316</ele>
        <time>2020-05-12T11:48:33Z</time>
      </trkpt>
      <trkpt lat="43.23175" lon="0.0873">
        <ele>314</ele>
        <time>2020-05-12T11:49:04Z</time>
      </trkpt>
      <trkpt lat="43.23163" lon="0.08747">
        <ele>314</ele>
        <time>2020-05-12T11:49:18Z</time>
      </trkpt>
      <trkpt lat="43.23127" lon="0.08773">
        <ele>313</ele>
        <time>2020-05-12T11:49:52Z</time>
      </trkpt>
      <trkpt lat="43.23117" lon="0.08781">
        <ele>313</ele>
        <time>2020-05-12T11:50:22Z</time>
      </trkpt>
      <trkpt lat="43.2311" lon="0.08786">
        <ele>313</ele>
        <time>2020-05-12T11:50:29Z</time>
      </trkpt>
      <trkpt lat="43.23106" lon="0.08794">
        <ele>313</ele>
        <time>2020-05-12T11:50:35Z</time>
      </trkpt>
      <trkpt lat="43.23094" lon="0.08807">
        <ele>313</ele>
        <time>2020-05-12T11:50:48Z</time>
      </trkpt>
      <trkpt lat="43.2308" lon="0.08833">
        <ele>313</ele>
        <time>2020-05-12T11:51:09Z</time>
      </trkpt>
      <trkpt lat="43.23074" lon="0.08839">
        <ele>313</ele>
        <time>2020-05-12T11:51:16Z</time>
      </trkpt>
      <trkpt lat="43.23066" lon="0.08839">
        <ele>313</ele>
        <time>2020-05-12T11:51:29Z</time>
      </trkpt>
      <trkpt lat="43.23058" lon="0.08836">
        <ele>313</ele>
        <time>2020-05-12T11:51:35Z</time>
      </trkpt>
      <trkpt lat="43.23049" lon="0.08841">
        <ele>313</ele>
        <time>2020-05-12T11:51:46Z</time>
      </trkpt>
      <trkpt lat="43.23044" lon="0.08854">
        <ele>312</ele>
        <time>2020-05-12T11:52:00Z</time>
      </trkpt>
      <trkpt lat="43.23016" lon="0.08875">
        <ele>312</ele>
        <time>2020-05-12T11:52:21Z</time>
      </trkpt>
      <trkpt lat="43.23009" lon="0.08877">
        <ele>312</ele>
        <time>2020-05-12T11:52:25Z</time>
      </trkpt>
      <trkpt lat="43.23005" lon="0.08886">
        <ele>312</ele>
        <time>2020-05-12T11:52:30Z</time>
      </trkpt>
      <trkpt lat="43.22992" lon="0.08901">
        <ele>313</ele>
        <time>2020-05-12T11:52:44Z</time>
      </trkpt>
      <trkpt lat="43.22978" lon="0.08912">
        <ele>313</ele>
        <time>2020-05-12T11:52:55Z</time>
      </trkpt>
      <trkpt lat="43.22963" lon="0.08929">
        <ele>313</ele>
        <time>2020-05-12T11:53:06Z</time>
      </trkpt>
      <trkpt lat="43.22944" lon="0.08943">
        <ele>313</ele>
        <time>2020-05-12T11:53:23Z</time>
      </trkpt>
      <trkpt lat="43.22937" lon="0.0895">
        <ele>313</ele>
        <time>2020-05-12T11:53:29Z</time>
      </trkpt>
      <trkpt lat="43.22923" lon="0.08959">
        <ele>313</ele>
        <time>2020-05-12T11:53:39Z</time>
      </trkpt>
      <trkpt lat="43.2288" lon="0.08974">
        <ele>313</ele>
        <time>2020-05-12T11:54:20Z</time>
      </trkpt>
      <trkpt lat="43.22874" lon="0.08979">
        <ele>313</ele>
        <time>2020-05-12T11:54:24Z</time>
      </trkpt>
      <trkpt lat="43.22826" lon="0.0899">
        <ele>314</ele>
        <time>2020-05-12T11:55:00Z</time>
      </trkpt>
      <trkpt lat="43.22819" lon="0.08995">
        <ele>314</ele>
        <time>2020-05-12T11:55:07Z</time>
      </trkpt>
      <trkpt lat="43.22779" lon="0.09006">
        <ele>314</ele>
        <time>2020-05-12T11:55:38Z</time>
      </trkpt>
      <trkpt lat="43.22764" lon="0.09006">
        <ele>314</ele>
        <time>2020-05-12T11:55:51Z</time>
      </trkpt>
      <trkpt lat="43.22757" lon="0.09009">
        <ele>314</ele>
        <time>2020-05-12T11:55:58Z</time>
      </trkpt>
      <trkpt lat="43.22744" lon="0.09022">
        <ele>315</ele>
        <time>2020-05-12T11:56:12Z</time>
      </trkpt>
      <trkpt lat="43.22728" lon="0.09024">
        <ele>315</ele>
        <time>2020-05-12T11:56:24Z</time>
      </trkpt>
      <trkpt lat="43.2272" lon="0.09028">
        <ele>315</ele>
        <time>2020-05-12T11:56:29Z</time>
      </trkpt>
      <trkpt lat="43.22713" lon="0.09026">
        <ele>315</ele>
        <time>2020-05-12T11:56:36Z</time>
      </trkpt>
      <trkpt lat="43.22691" lon="0.09039">
        <ele>315</ele>
        <time>2020-05-12T11:56:52Z</time>
      </trkpt>
      <trkpt lat="43.22687" lon="0.09047">
        <ele>315</ele>
        <time>2020-05-12T11:56:57Z</time>
      </trkpt>
      <trkpt lat="43.22639" lon="0.09065">
        <ele>315</ele>
        <time>2020-05-12T11:57:32Z</time>
      </trkpt>
      <trkpt lat="43.22609" lon="0.09087">
        <ele>316</ele>
        <time>2020-05-12T11:57:59Z</time>
      </trkpt>
      <trkpt lat="43.2257" lon="0.09101">
        <ele>316</ele>
        <time>2020-05-12T11:58:33Z</time>
      </trkpt>
      <trkpt lat="43.22555" lon="0.09105">
        <ele>316</ele>
        <time>2020-05-12T11:58:45Z</time>
      </trkpt>
      <trkpt lat="43.22548" lon="0.09108">
        <ele>316</ele>
        <time>2020-05-12T11:58:52Z</time>
      </trkpt>
      <trkpt lat="43.22517" lon="0.09117">
        <ele>317</ele>
        <time>2020-05-12T11:59:17Z</time>
      </trkpt>
      <trkpt lat="43.22481" lon="0.09135">
        <ele>317</ele>
        <time>2020-05-12T11:59:51Z</time>
      </trkpt>
      <trkpt lat="43.22465" lon="0.09137">
        <ele>318</ele>
        <time>2020-05-12T12:00:01Z</time>
      </trkpt>
      <trkpt lat="43.22451" lon="0.09144">
        <ele>318</ele>
        <time>2020-05-12T12:00:11Z</time>
      </trkpt>
      <trkpt lat="43.22436" lon="0.09149">
        <ele>318</ele>
        <time>2020-05-12T12:00:22Z</time>
      </trkpt>
      <trkpt lat="43.22415" lon="0.09164">
        <ele>318</ele>
        <time>2020-05-12T12:00:40Z</time>
      </trkpt>
      <trkpt lat="43.224" lon="0.09166">
        <ele>318</ele>
        <time>2020-05-12T12:00:51Z</time>
      </trkpt>
      <trkpt lat="43.22392" lon="0.09162">
        <ele>318</ele>
        <time>2020-05-12T12:00:57Z</time>
      </trkpt>
      <trkpt lat="43.22384" lon="0.09163">
        <ele>318</ele>
        <time>2020-05-12T12:01:03Z</time>
      </trkpt>
      <trkpt lat="43.22378" lon="0.09164">
        <ele>319</ele>
        <time>2020-05-12T12:01:08Z</time>
      </trkpt>
      <trkpt lat="43.22368" lon="0.09171">
        <ele>320</ele>
        <time>2020-05-12T12:01:19Z</time>
      </trkpt>
      <trkpt lat="43.22359" lon="0.0917">
        <ele>321</ele>
        <time>2020-05-12T12:01:26Z</time>
      </trkpt>
      <trkpt lat="43.22352" lon="0.09174">
        <ele>321</ele>
        <time>2020-05-12T12:01:33Z</time>
      </trkpt>
      <trkpt lat="43.22337" lon="0.09182">
        <ele>321</ele>
        <time>2020-05-12T12:01:46Z</time>
      </trkpt>
      <trkpt lat="43.22322" lon="0.09185">
        <ele>322</ele>
        <time>2020-05-12T12:01:59Z</time>
      </trkpt>
      <trkpt lat="43.2233" lon="0.0921">
        <ele>322</ele>
        <time>2020-05-12T12:02:20Z</time>
      </trkpt>
      <trkpt lat="43.22334" lon="0.09238">
        <ele>322</ele>
        <time>2020-05-12T12:02:38Z</time>
      </trkpt>
      <trkpt lat="43.22341" lon="0.09251">
        <ele>322</ele>
        <time>2020-05-12T12:02:47Z</time>
      </trkpt>
      <trkpt lat="43.22347" lon="0.09262">
        <ele>322</ele>
        <time>2020-05-12T12:02:59Z</time>
      </trkpt>
      <trkpt lat="43.22346" lon="0.09273">
        <ele>322</ele>
        <time>2020-05-12T12:03:12Z</time>
      </trkpt>
      <trkpt lat="43.22338" lon="0.09271">
        <ele>321</ele>
        <time>2020-05-12T12:03:52Z</time>
      </trkpt>
      <trkpt lat="43.22333" lon="0.09271">
        <ele>321</ele>
        <time>2020-05-12T12:04:08Z</time>
      </trkpt>
      <trkpt lat="43.22325" lon="0.09268">
        <ele>320</ele>
        <time>2020-05-12T12:04:18Z</time>
      </trkpt>
      <trkpt lat="43.22309" lon="0.09268">
        <ele>319</ele>
        <time>2020-05-12T12:04:33Z</time>
      </trkpt>
      <trkpt lat="43.22294" lon="0.09273">
        <ele>319</ele>
        <time>2020-05-12T12:04:45Z</time>
      </trkpt>
      <trkpt lat="43.22262" lon="0.09277">
        <ele>319</ele>
        <time>2020-05-12T12:05:11Z</time>
      </trkpt>
      <trkpt lat="43.22246" lon="0.09286">
        <ele>319</ele>
        <time>2020-05-12T12:05:23Z</time>
      </trkpt>
      <trkpt lat="43.22239" lon="0.09292">
        <ele>320</ele>
        <time>2020-05-12T12:05:28Z</time>
      </trkpt>
      <trkpt lat="43.22235" lon="0.09299">
        <ele>320</ele>
        <time>2020-05-12T12:05:35Z</time>
      </trkpt>
      <trkpt lat="43.22233" lon="0.09309">
        <ele>320</ele>
        <time>2020-05-12T12:05:41Z</time>
      </trkpt>
      <trkpt lat="43.22218" lon="0.0932">
        <ele>321</ele>
        <time>2020-05-12T12:05:57Z</time>
      </trkpt>
      <trkpt lat="43.22204" lon="0.09326">
        <ele>322</ele>
        <time>2020-05-12T12:06:08Z</time>
      </trkpt>
      <trkpt lat="43.22186" lon="0.09337">
        <ele>321</ele>
        <time>2020-05-12T12:06:28Z</time>
      </trkpt>
      <trkpt lat="43.2214" lon="0.09348">
        <ele>320</ele>
        <time>2020-05-12T12:07:01Z</time>
      </trkpt>
      <trkpt lat="43.22101" lon="0.0936">
        <ele>320</ele>
        <time>2020-05-12T12:07:33Z</time>
      </trkpt>
      <trkpt lat="43.2209" lon="0.09363">
        <ele>320</ele>
        <time>2020-05-12T12:07:46Z</time>
      </trkpt>
      <trkpt lat="43.22073" lon="0.09376">
        <ele>320</ele>
        <time>2020-05-12T12:08:03Z</time>
      </trkpt>
      <trkpt lat="43.22058" lon="0.09381">
        <ele>320</ele>
        <time>2020-05-12T12:08:16Z</time>
      </trkpt>
      <trkpt lat="43.22051" lon="0.09386">
        <ele>320</ele>
        <time>2020-05-12T12:08:21Z</time>
      </trkpt>
      <trkpt lat="43.22034" lon="0.09392">
        <ele>320</ele>
        <time>2020-05-12T12:08:33Z</time>
      </trkpt>
      <trkpt lat="43.22026" lon="0.09404">
        <ele>320</ele>
        <time>2020-05-12T12:08:48Z</time>
      </trkpt>
      <trkpt lat="43.22019" lon="0.0941">
        <ele>320</ele>
        <time>2020-05-12T12:08:55Z</time>
      </trkpt>
      <trkpt lat="43.21996" lon="0.09419">
        <ele>320</ele>
        <time>2020-05-12T12:09:12Z</time>
      </trkpt>
      <trkpt lat="43.2195" lon="0.09419">
        <ele>322</ele>
        <time>2020-05-12T12:09:47Z</time>
      </trkpt>
      <trkpt lat="43.21927" lon="0.09428">
        <ele>323</ele>
        <time>2020-05-12T12:10:08Z</time>
      </trkpt>
      <trkpt lat="43.21907" lon="0.09425">
        <ele>324</ele>
        <time>2020-05-12T12:10:25Z</time>
      </trkpt>
      <trkpt lat="43.21899" lon="0.09422">
        <ele>324</ele>
        <time>2020-05-12T12:10:30Z</time>
      </trkpt>
      <trkpt lat="43.2186" lon="0.09417">
        <ele>325</ele>
        <time>2020-05-12T12:10:58Z</time>
      </trkpt>
      <trkpt lat="43.21845" lon="0.0942">
        <ele>326</ele>
        <time>2020-05-12T12:11:10Z</time>
      </trkpt>
      <trkpt lat="43.21822" lon="0.09419">
        <ele>326</ele>
        <time>2020-05-12T12:11:28Z</time>
      </trkpt>
      <trkpt lat="43.21811" lon="0.09422">
        <ele>326</ele>
        <time>2020-05-12T12:11:40Z</time>
      </trkpt>
      <trkpt lat="43.21788" lon="0.09417">
        <ele>326</ele>
        <time>2020-05-12T12:11:57Z</time>
      </trkpt>
      <trkpt lat="43.21748" lon="0.09414">
        <ele>325</ele>
        <time>2020-05-12T12:12:28Z</time>
      </trkpt>
      <trkpt lat="43.21716" lon="0.09403">
        <ele>324</ele>
        <time>2020-05-12T12:12:51Z</time>
      </trkpt>
      <trkpt lat="43.21709" lon="0.09403">
        <ele>324</ele>
        <time>2020-05-12T12:12:57Z</time>
      </trkpt>
      <trkpt lat="43.21701" lon="0.09398">
        <ele>324</ele>
        <time>2020-05-12T12:13:04Z</time>
      </trkpt>
      <trkpt lat="43.21693" lon="0.09398">
        <ele>324</ele>
        <time>2020-05-12T12:13:10Z</time>
      </trkpt>
      <trkpt lat="43.21656" lon="0.09381">
        <ele>324</ele>
        <time>2020-05-12T12:13:41Z</time>
      </trkpt>
      <trkpt lat="43.21649" lon="0.09378">
        <ele>324</ele>
        <time>2020-05-12T12:13:46Z</time>
      </trkpt>
      <trkpt lat="43.21637" lon="0.09365">
        <ele>325</ele>
        <time>2020-05-12T12:13:57Z</time>
      </trkpt>
      <trkpt lat="43.21624" lon="0.09358">
        <ele>326</ele>
        <time>2020-05-12T12:14:12Z</time>
      </trkpt>
      <trkpt lat="43.21619" lon="0.09353">
        <ele>326</ele>
        <time>2020-05-12T12:14:19Z</time>
      </trkpt>
      <trkpt lat="43.21602" lon="0.09349">
        <ele>325</ele>
        <time>2020-05-12T12:14:35Z</time>
      </trkpt>
      <trkpt lat="43.21596" lon="0.09345">
        <ele>325</ele>
        <time>2020-05-12T12:14:41Z</time>
      </trkpt>
      <trkpt lat="43.21589" lon="0.09336">
        <ele>326</ele>
        <time>2020-05-12T12:14:50Z</time>
      </trkpt>
      <trkpt lat="43.21573" lon="0.09326">
        <ele>326</ele>
        <time>2020-05-12T12:15:06Z</time>
      </trkpt>
      <trkpt lat="43.21539" lon="0.09283">
        <ele>326</ele>
        <time>2020-05-12T12:15:40Z</time>
      </trkpt>
      <trkpt lat="43.21506" lon="0.09272">
        <ele>325</ele>
        <time>2020-05-12T12:15:57Z</time>
      </trkpt>
      <trkpt lat="43.21499" lon="0.09282">
        <ele>326</ele>
        <time>2020-05-12T12:16:19Z</time>
      </trkpt>
      <trkpt lat="43.2148" lon="0.09313">
        <ele>328</ele>
        <time>2020-05-12T12:16:52Z</time>
      </trkpt>
      <trkpt lat="43.21463" lon="0.09337">
        <ele>328</ele>
        <time>2020-05-12T12:17:08Z</time>
      </trkpt>
      <trkpt lat="43.2146" lon="0.09347">
        <ele>328</ele>
        <time>2020-05-12T12:17:14Z</time>
      </trkpt>
      <trkpt lat="43.21456" lon="0.09378">
        <ele>329</ele>
        <time>2020-05-12T12:17:35Z</time>
      </trkpt>
      <trkpt lat="43.21457" lon="0.09388">
        <ele>329</ele>
        <time>2020-05-12T12:17:45Z</time>
      </trkpt>
      <trkpt lat="43.2146" lon="0.09398">
        <ele>329</ele>
        <time>2020-05-12T12:17:52Z</time>
      </trkpt>
      <trkpt lat="43.21456" lon="0.09421">
        <ele>329</ele>
        <time>2020-05-12T12:18:38Z</time>
      </trkpt>
      <trkpt lat="43.21432" lon="0.094">
        <ele>330</ele>
        <time>2020-05-12T12:19:13Z</time>
      </trkpt>
      <trkpt lat="43.21393" lon="0.09373">
        <ele>330</ele>
        <time>2020-05-12T12:19:47Z</time>
      </trkpt>
      <trkpt lat="43.21386" lon="0.09376">
        <ele>330</ele>
        <time>2020-05-12T12:19:54Z</time>
      </trkpt>
      <trkpt lat="43.21378" lon="0.09374">
        <ele>330</ele>
        <time>2020-05-12T12:20:02Z</time>
      </trkpt>
      <trkpt lat="43.21372" lon="0.09379">
        <ele>330</ele>
        <time>2020-05-12T12:20:07Z</time>
      </trkpt>
      <trkpt lat="43.21325" lon="0.09368">
        <ele>330</ele>
        <time>2020-05-12T12:20:40Z</time>
      </trkpt>
      <trkpt lat="43.21298" lon="0.09357">
        <ele>330</ele>
        <time>2020-05-12T12:21:02Z</time>
      </trkpt>
      <trkpt lat="43.21254" lon="0.09364">
        <ele>330</ele>
        <time>2020-05-12T12:21:35Z</time>
      </trkpt>
      <trkpt lat="43.21246" lon="0.09366">
        <ele>330</ele>
        <time>2020-05-12T12:21:41Z</time>
      </trkpt>
      <trkpt lat="43.21223" lon="0.09361">
        <ele>330</ele>
        <time>2020-05-12T12:21:59Z</time>
      </trkpt>
      <trkpt lat="43.21192" lon="0.09347">
        <ele>330</ele>
        <time>2020-05-12T12:22:28Z</time>
      </trkpt>
      <trkpt lat="43.21179" lon="0.09326">
        <ele>330</ele>
        <time>2020-05-12T12:22:48Z</time>
      </trkpt>
      <trkpt lat="43.21168" lon="0.09308">
        <ele>330</ele>
        <time>2020-05-12T12:22:59Z</time>
      </trkpt>
      <trkpt lat="43.21165" lon="0.09297">
        <ele>330</ele>
        <time>2020-05-12T12:23:07Z</time>
      </trkpt>
      <trkpt lat="43.21175" lon="0.09252">
        <ele>329</ele>
        <time>2020-05-12T12:23:31Z</time>
      </trkpt>
      <trkpt lat="43.21174" lon="0.09242">
        <ele>329</ele>
        <time>2020-05-12T12:23:36Z</time>
      </trkpt>
      <trkpt lat="43.21179" lon="0.09219">
        <ele>329</ele>
        <time>2020-05-12T12:23:50Z</time>
      </trkpt>
      <trkpt lat="43.21186" lon="0.0921">
        <ele>329</ele>
        <time>2020-05-12T12:24:01Z</time>
      </trkpt>
      <trkpt lat="43.21191" lon="0.09198">
        <ele>330</ele>
        <time>2020-05-12T12:24:10Z</time>
      </trkpt>
      <trkpt lat="43.21196" lon="0.09192">
        <ele>330</ele>
        <time>2020-05-12T12:24:16Z</time>
      </trkpt>
      <trkpt lat="43.21213" lon="0.09192">
        <ele>330</ele>
        <time>2020-05-12T12:24:35Z</time>
      </trkpt>
      <trkpt lat="43.2123" lon="0.09189">
        <ele>329</ele>
        <time>2020-05-12T12:24:44Z</time>
      </trkpt>
      <trkpt lat="43.21236" lon="0.09186">
        <ele>329</ele>
        <time>2020-05-12T12:24:48Z</time>
      </trkpt>
      <trkpt lat="43.21253" lon="0.09189">
        <ele>329</ele>
        <time>2020-05-12T12:25:00Z</time>
      </trkpt>
      <trkpt lat="43.21277" lon="0.09182">
        <ele>329</ele>
        <time>2020-05-12T12:25:11Z</time>
      </trkpt>
      <trkpt lat="43.21295" lon="0.09182">
        <ele>329</ele>
        <time>2020-05-12T12:25:20Z</time>
      </trkpt>
      <trkpt lat="43.21301" lon="0.09181">
        <ele>329</ele>
        <time>2020-05-12T12:25:24Z</time>
      </trkpt>
      <trkpt lat="43.21307" lon="0.09181">
        <ele>329</ele>
        <time>2020-05-12T12:25:29Z</time>
      </trkpt>
      <trkpt lat="43.21336" lon="0.09178">
        <ele>329</ele>
        <time>2020-05-12T12:25:56Z</time>
      </trkpt>
      <trkpt lat="43.21367" lon="0.09186">
        <ele>329</ele>
        <time>2020-05-12T12:26:18Z</time>
      </trkpt>
      <trkpt lat="43.21378" lon="0.09192">
        <ele>329</ele>
        <time>2020-05-12T12:26:26Z</time>
      </trkpt>
      <trkpt lat="43.21389" lon="0.09195">
        <ele>329</ele>
        <time>2020-05-12T12:26:35Z</time>
      </trkpt>
      <trkpt lat="43.21402" lon="0.09191">
        <ele>328</ele>
        <time>2020-05-12T12:26:47Z</time>
      </trkpt>
      <trkpt lat="43.2141" lon="0.09193">
        <ele>328</ele>
        <time>2020-05-12T12:26:54Z</time>
      </trkpt>
      <trkpt lat="43.2143" lon="0.09194">
        <ele>326</ele>
        <time>2020-05-12T12:27:12Z</time>
      </trkpt>
      <trkpt lat="43.21449" lon="0.09204">
        <ele>326</ele>
        <time>2020-05-12T12:27:28Z</time>
      </trkpt>
      <trkpt lat="43.21461" lon="0.09207">
        <ele>326</ele>
        <time>2020-05-12T12:27:38Z</time>
      </trkpt>
      <trkpt lat="43.21466" lon="0.09211">
        <ele>326</ele>
        <time>2020-05-12T12:27:43Z</time>
      </trkpt>
      <trkpt lat="43.2147" lon="0.09221">
        <ele>326</ele>
        <time>2020-05-12T12:27:56Z</time>
      </trkpt>
      <trkpt lat="43.21471" lon="0.0923">
        <ele>326</ele>
        <time>2020-05-12T12:28:47Z</time>
      </trkpt>
      <trkpt lat="43.21475" lon="0.09235">
        <ele>327</ele>
        <time>2020-05-12T12:28:51Z</time>
      </trkpt>
      <trkpt lat="43.21484" lon="0.09245">
        <ele>326</ele>
        <time>2020-05-12T12:29:01Z</time>
      </trkpt>
      <trkpt lat="43.21489" lon="0.09254">
        <ele>327</ele>
        <time>2020-05-12T12:29:08Z</time>
      </trkpt>
      <trkpt lat="43.21498" lon="0.09263">
        <ele>327</ele>
        <time>2020-05-12T12:29:18Z</time>
      </trkpt>
      <trkpt lat="43.21535" lon="0.09274">
        <ele>326</ele>
        <time>2020-05-12T12:29:47Z</time>
      </trkpt>
      <trkpt lat="43.21544" lon="0.09289">
        <ele>326</ele>
        <time>2020-05-12T12:29:53Z</time>
      </trkpt>
      <trkpt lat="43.2155" lon="0.09307">
        <ele>326</ele>
        <time>2020-05-12T12:30:06Z</time>
      </trkpt>
      <trkpt lat="43.21593" lon="0.09336">
        <ele>326</ele>
        <time>2020-05-12T12:30:40Z</time>
      </trkpt>
      <trkpt lat="43.216" lon="0.09342">
        <ele>326</ele>
        <time>2020-05-12T12:30:46Z</time>
      </trkpt>
      <trkpt lat="43.21605" lon="0.09349">
        <ele>326</ele>
        <time>2020-05-12T12:30:52Z</time>
      </trkpt>
      <trkpt lat="43.2162" lon="0.09355">
        <ele>326</ele>
        <time>2020-05-12T12:31:04Z</time>
      </trkpt>
      <trkpt lat="43.21634" lon="0.09368">
        <ele>326</ele>
        <time>2020-05-12T12:31:16Z</time>
      </trkpt>
      <trkpt lat="43.21646" lon="0.09382">
        <ele>325</ele>
        <time>2020-05-12T12:31:29Z</time>
      </trkpt>
      <trkpt lat="43.21657" lon="0.0939">
        <ele>325</ele>
        <time>2020-05-12T12:31:39Z</time>
      </trkpt>
      <trkpt lat="43.21662" lon="0.09391">
        <ele>325</ele>
        <time>2020-05-12T12:31:43Z</time>
      </trkpt>
      <trkpt lat="43.21679" lon="0.09401">
        <ele>325</ele>
        <time>2020-05-12T12:31:59Z</time>
      </trkpt>
      <trkpt lat="43.21687" lon="0.09403">
        <ele>325</ele>
        <time>2020-05-12T12:32:04Z</time>
      </trkpt>
      <trkpt lat="43.21709" lon="0.09402">
        <ele>325</ele>
        <time>2020-05-12T12:32:19Z</time>
      </trkpt>
      <trkpt lat="43.21751" lon="0.09413">
        <ele>326</ele>
        <time>2020-05-12T12:32:50Z</time>
      </trkpt>
      <trkpt lat="43.21782" lon="0.0942">
        <ele>327</ele>
        <time>2020-05-12T12:33:16Z</time>
      </trkpt>
      <trkpt lat="43.21789" lon="0.09416">
        <ele>327</ele>
        <time>2020-05-12T12:33:23Z</time>
      </trkpt>
      <trkpt lat="43.21806" lon="0.09418">
        <ele>326</ele>
        <time>2020-05-12T12:33:36Z</time>
      </trkpt>
      <trkpt lat="43.21813" lon="0.09414">
        <ele>326</ele>
        <time>2020-05-12T12:33:42Z</time>
      </trkpt>
      <trkpt lat="43.21828" lon="0.09413">
        <ele>326</ele>
        <time>2020-05-12T12:33:54Z</time>
      </trkpt>
      <trkpt lat="43.21834" lon="0.09416">
        <ele>326</ele>
        <time>2020-05-12T12:33:59Z</time>
      </trkpt>
      <trkpt lat="43.2184" lon="0.09415">
        <ele>326</ele>
        <time>2020-05-12T12:34:03Z</time>
      </trkpt>
      <trkpt lat="43.21846" lon="0.09412">
        <ele>325</ele>
        <time>2020-05-12T12:34:08Z</time>
      </trkpt>
      <trkpt lat="43.21879" lon="0.09416">
        <ele>324</ele>
        <time>2020-05-12T12:34:34Z</time>
      </trkpt>
      <trkpt lat="43.21887" lon="0.09419">
        <ele>324</ele>
        <time>2020-05-12T12:34:40Z</time>
      </trkpt>
      <trkpt lat="43.21894" lon="0.09416">
        <ele>323</ele>
        <time>2020-05-12T12:34:48Z</time>
      </trkpt>
      <trkpt lat="43.21924" lon="0.09425">
        <ele>322</ele>
        <time>2020-05-12T12:35:17Z</time>
      </trkpt>
      <trkpt lat="43.21931" lon="0.09423">
        <ele>322</ele>
        <time>2020-05-12T12:35:23Z</time>
      </trkpt>
      <trkpt lat="43.21955" lon="0.09426">
        <ele>321</ele>
        <time>2020-05-12T12:35:41Z</time>
      </trkpt>
      <trkpt lat="43.21987" lon="0.09416">
        <ele>320</ele>
        <time>2020-05-12T12:36:01Z</time>
      </trkpt>
      <trkpt lat="43.21994" lon="0.09418">
        <ele>320</ele>
        <time>2020-05-12T12:36:06Z</time>
      </trkpt>
      <trkpt lat="43.22025" lon="0.09409">
        <ele>320</ele>
        <time>2020-05-12T12:36:33Z</time>
      </trkpt>
      <trkpt lat="43.22038" lon="0.09396">
        <ele>320</ele>
        <time>2020-05-12T12:36:47Z</time>
      </trkpt>
      <trkpt lat="43.22045" lon="0.09394">
        <ele>320</ele>
        <time>2020-05-12T12:36:52Z</time>
      </trkpt>
      <trkpt lat="43.22053" lon="0.0939">
        <ele>320</ele>
        <time>2020-05-12T12:36:58Z</time>
      </trkpt>
      <trkpt lat="43.22066" lon="0.09376">
        <ele>320</ele>
        <time>2020-05-12T12:37:12Z</time>
      </trkpt>
      <trkpt lat="43.22106" lon="0.09353">
        <ele>319</ele>
        <time>2020-05-12T12:37:54Z</time>
      </trkpt>
      <trkpt lat="43.22116" lon="0.0934">
        <ele>319</ele>
        <time>2020-05-12T12:38:10Z</time>
      </trkpt>
      <trkpt lat="43.22124" lon="0.09326">
        <ele>319</ele>
        <time>2020-05-12T12:38:31Z</time>
      </trkpt>
      <trkpt lat="43.22146" lon="0.09308">
        <ele>319</ele>
        <time>2020-05-12T12:38:58Z</time>
      </trkpt>
      <trkpt lat="43.22177" lon="0.09307">
        <ele>318</ele>
        <time>2020-05-12T12:39:13Z</time>
      </trkpt>
      <trkpt lat="43.22234" lon="0.09279">
        <ele>318</ele>
        <time>2020-05-12T12:39:43Z</time>
      </trkpt>
      <trkpt lat="43.22263" lon="0.09267">
        <ele>318</ele>
        <time>2020-05-12T12:39:59Z</time>
      </trkpt>
      <trkpt lat="43.22293" lon="0.09264">
        <ele>318</ele>
        <time>2020-05-12T12:40:17Z</time>
      </trkpt>
      <trkpt lat="43.22307" lon="0.09265">
        <ele>318</ele>
        <time>2020-05-12T12:40:29Z</time>
      </trkpt>
      <trkpt lat="43.22313" lon="0.09262">
        <ele>319</ele>
        <time>2020-05-12T12:40:35Z</time>
      </trkpt>
      <trkpt lat="43.22321" lon="0.09265">
        <ele>319</ele>
        <time>2020-05-12T12:40:42Z</time>
      </trkpt>
      <trkpt lat="43.22332" lon="0.09274">
        <ele>319</ele>
        <time>2020-05-12T12:40:50Z</time>
      </trkpt>
      <trkpt lat="43.22337" lon="0.09275">
        <ele>319</ele>
        <time>2020-05-12T12:40:55Z</time>
      </trkpt>
      <trkpt lat="43.22344" lon="0.09274">
        <ele>320</ele>
        <time>2020-05-12T12:41:03Z</time>
      </trkpt>
      <trkpt lat="43.22349" lon="0.09271">
        <ele>320</ele>
        <time>2020-05-12T12:41:08Z</time>
      </trkpt>
      <trkpt lat="43.22365" lon="0.09257">
        <ele>320</ele>
        <time>2020-05-12T12:41:33Z</time>
      </trkpt>
      <trkpt lat="43.22369" lon="0.0925">
        <ele>319</ele>
        <time>2020-05-12T12:41:41Z</time>
      </trkpt>
      <trkpt lat="43.22411" lon="0.09224">
        <ele>317</ele>
        <time>2020-05-12T12:42:17Z</time>
      </trkpt>
      <trkpt lat="43.22418" lon="0.0922">
        <ele>317</ele>
        <time>2020-05-12T12:42:24Z</time>
      </trkpt>
      <trkpt lat="43.22425" lon="0.09218">
        <ele>317</ele>
        <time>2020-05-12T12:42:35Z</time>
      </trkpt>
      <trkpt lat="43.22432" lon="0.09211">
        <ele>317</ele>
        <time>2020-05-12T12:42:44Z</time>
      </trkpt>
      <trkpt lat="43.2244" lon="0.09207">
        <ele>317</ele>
        <time>2020-05-12T12:42:49Z</time>
      </trkpt>
      <trkpt lat="43.22445" lon="0.092">
        <ele>317</ele>
        <time>2020-05-12T12:42:53Z</time>
      </trkpt>
      <trkpt lat="43.22452" lon="0.09195">
        <ele>317</ele>
        <time>2020-05-12T12:42:59Z</time>
      </trkpt>
      <trkpt lat="43.22499" lon="0.09183">
        <ele>318</ele>
        <time>2020-05-12T12:43:35Z</time>
      </trkpt>
      <trkpt lat="43.22507" lon="0.09181">
        <ele>318</ele>
        <time>2020-05-12T12:43:40Z</time>
      </trkpt>
      <trkpt lat="43.22514" lon="0.09174">
        <ele>318</ele>
        <time>2020-05-12T12:43:45Z</time>
      </trkpt>
      <trkpt lat="43.22522" lon="0.09173">
        <ele>318</ele>
        <time>2020-05-12T12:43:51Z</time>
      </trkpt>
      <trkpt lat="43.22529" lon="0.0917">
        <ele>318</ele>
        <time>2020-05-12T12:43:58Z</time>
      </trkpt>
      <trkpt lat="43.22537" lon="0.09171">
        <ele>318</ele>
        <time>2020-05-12T12:44:04Z</time>
      </trkpt>
      <trkpt lat="43.22563" lon="0.09161">
        <ele>318</ele>
        <time>2020-05-12T12:44:21Z</time>
      </trkpt>
      <trkpt lat="43.2257" lon="0.09156">
        <ele>318</ele>
        <time>2020-05-12T12:44:27Z</time>
      </trkpt>
      <trkpt lat="43.22617" lon="0.09144">
        <ele>317</ele>
        <time>2020-05-12T12:45:00Z</time>
      </trkpt>
      <trkpt lat="43.2264" lon="0.09133">
        <ele>317</ele>
        <time>2020-05-12T12:45:17Z</time>
      </trkpt>
      <trkpt lat="43.22675" lon="0.09122">
        <ele>316</ele>
        <time>2020-05-12T12:45:44Z</time>
      </trkpt>
      <trkpt lat="43.22712" lon="0.09101">
        <ele>315</ele>
        <time>2020-05-12T12:46:18Z</time>
      </trkpt>
      <trkpt lat="43.22717" lon="0.09095">
        <ele>315</ele>
        <time>2020-05-12T12:46:24Z</time>
      </trkpt>
      <trkpt lat="43.22749" lon="0.09076">
        <ele>314</ele>
        <time>2020-05-12T12:47:01Z</time>
      </trkpt>
      <trkpt lat="43.22762" lon="0.09068">
        <ele>313</ele>
        <time>2020-05-12T12:47:10Z</time>
      </trkpt>
      <trkpt lat="43.22777" lon="0.09067">
        <ele>313</ele>
        <time>2020-05-12T12:47:23Z</time>
      </trkpt>
      <trkpt lat="43.22794" lon="0.0905">
        <ele>313</ele>
        <time>2020-05-12T12:47:48Z</time>
      </trkpt>
      <trkpt lat="43.2284" lon="0.09035">
        <ele>313</ele>
        <time>2020-05-12T12:48:25Z</time>
      </trkpt>
      <trkpt lat="43.22864" lon="0.09029">
        <ele>313</ele>
        <time>2020-05-12T12:48:40Z</time>
      </trkpt>
      <trkpt lat="43.22903" lon="0.08997">
        <ele>313</ele>
        <time>2020-05-12T12:49:18Z</time>
      </trkpt>
      <trkpt lat="43.22945" lon="0.08981">
        <ele>313</ele>
        <time>2020-05-12T12:49:44Z</time>
      </trkpt>
      <trkpt lat="43.2299" lon="0.08944">
        <ele>313</ele>
        <time>2020-05-12T12:50:28Z</time>
      </trkpt>
      <trkpt lat="43.23015" lon="0.08918">
        <ele>313</ele>
        <time>2020-05-12T12:50:45Z</time>
      </trkpt>
      <trkpt lat="43.23043" lon="0.08907">
        <ele>312</ele>
        <time>2020-05-12T12:51:01Z</time>
      </trkpt>
      <trkpt lat="43.23072" lon="0.08903">
        <ele>312</ele>
        <time>2020-05-12T12:51:18Z</time>
      </trkpt>
      <trkpt lat="43.23115" lon="0.08883">
        <ele>312</ele>
        <time>2020-05-12T12:51:53Z</time>
      </trkpt>
      <trkpt lat="43.23122" lon="0.08882">
        <ele>312</ele>
        <time>2020-05-12T12:52:05Z</time>
      </trkpt>
      <trkpt lat="43.2313" lon="0.08879">
        <ele>312</ele>
        <time>2020-05-12T12:52:13Z</time>
      </trkpt>
      <trkpt lat="43.23138" lon="0.08885">
        <ele>312</ele>
        <time>2020-05-12T12:52:17Z</time>
      </trkpt>
      <trkpt lat="43.23149" lon="0.08884">
        <ele>312</ele>
        <time>2020-05-12T12:52:28Z</time>
      </trkpt>
      <trkpt lat="43.23177" lon="0.08863">
        <ele>312</ele>
        <time>2020-05-12T12:52:59Z</time>
      </trkpt>
      <trkpt lat="43.23201" lon="0.08857">
        <ele>312</ele>
        <time>2020-05-12T12:53:18Z</time>
      </trkpt>
      <trkpt lat="43.23217" lon="0.08867">
        <ele>312</ele>
        <time>2020-05-12T12:53:32Z</time>
      </trkpt>
      <trkpt lat="43.23214" lon="0.08882">
        <ele>313</ele>
        <time>2020-05-12T12:53:45Z</time>
      </trkpt>
      <trkpt lat="43.23226" lon="0.08879">
        <ele>313</ele>
        <time>2020-05-12T12:54:20Z</time>
      </trkpt>
      <trkpt lat="43.23232" lon="0.08884">
        <ele>313</ele>
        <time>2020-05-12T12:54:25Z</time>
      </trkpt>
      <trkpt lat="43.23237" lon="0.08891">
        <ele>313</ele>
        <time>2020-05-12T12:54:30Z</time>
      </trkpt>
      <trkpt lat="43.2325" lon="0.08917">
        <ele>316</ele>
        <time>2020-05-12T12:54:55Z</time>
      </trkpt>
      <trkpt lat="43.23254" lon="0.08913">
        <ele>317</ele>
        <time>2020-05-12T12:55:19Z</time>
      </trkpt>
      <trkpt lat="43.23247" lon="0.08898">
        <ele>317</ele>
        <time>2020-05-12T12:55:29Z</time>
      </trkpt>
      <trkpt lat="43.23241" lon="0.08879">
        <ele>317</ele>
        <time>2020-05-12T12:55:41Z</time>
      </trkpt>
      <trkpt lat="43.23239" lon="0.08868">
        <ele>317</ele>
        <time>2020-05-12T12:55:49Z</time>
      </trkpt>
      <trkpt lat="43.23238" lon="0.08846">
        <ele>317</ele>
        <time>2020-05-12T12:56:03Z</time>
      </trkpt>
      <trkpt lat="43.23226" lon="0.08793">
        <ele>316</ele>
        <time>2020-05-12T12:56:33Z</time>
      </trkpt>
      <trkpt lat="43.23213" lon="0.08745">
        <ele>315</ele>
        <time>2020-05-12T12:57:02Z</time>
      </trkpt>
      <trkpt lat="43.23211" lon="0.08735">
        <ele>315</ele>
        <time>2020-05-12T12:57:07Z</time>
      </trkpt>
      <trkpt lat="43.23217" lon="0.0872">
        <ele>315</ele>
        <time>2020-05-12T12:57:22Z</time>
      </trkpt>
      <trkpt lat="43.23197" lon="0.08668">
        <ele>314</ele>
        <time>2020-05-12T12:57:58Z</time>
      </trkpt>
      <trkpt lat="43.23184" lon="0.08623">
        <ele>314</ele>
        <time>2020-05-12T12:58:29Z</time>
      </trkpt>
      <trkpt lat="43.2318" lon="0.08608">
        <ele>314</ele>
        <time>2020-05-12T12:58:37Z</time>
      </trkpt>
      <trkpt lat="43.23176" lon="0.08584">
        <ele>314</ele>
        <time>2020-05-12T12:58:51Z</time>
      </trkpt>
      <trkpt lat="43.23175" lon="0.08574">
        <ele>314</ele>
        <time>2020-05-12T12:58:59Z</time>
      </trkpt>
      <trkpt lat="43.2317" lon="0.08566">
        <ele>314</ele>
        <time>2020-05-12T12:59:06Z</time>
      </trkpt>
      <trkpt lat="43.23168" lon="0.08556">
        <ele>314</ele>
        <time>2020-05-12T12:59:11Z</time>
      </trkpt>
      <trkpt lat="43.2317" lon="0.08546">
        <ele>314</ele>
        <time>2020-05-12T12:59:18Z</time>
      </trkpt>
      <trkpt lat="43.23166" lon="0.08524">
        <ele>314</ele>
        <time>2020-05-12T12:59:28Z</time>
      </trkpt>
      <trkpt lat="43.23162" lon="0.08516">
        <ele>314</ele>
        <time>2020-05-12T12:59:32Z</time>
      </trkpt>
      <trkpt lat="43.23156" lon="0.08501">
        <ele>314</ele>
        <time>2020-05-12T12:59:51Z</time>
      </trkpt>
      <trkpt lat="43.23162" lon="0.08479">
        <ele>314</ele>
        <time>2020-05-12T13:00:03Z</time>
      </trkpt>
      <trkpt lat="43.23161" lon="0.08469">
        <ele>314</ele>
        <time>2020-05-12T13:00:10Z</time>
      </trkpt>
      <trkpt lat="43.23159" lon="0.08433">
        <ele>314</ele>
        <time>2020-05-12T13:00:36Z</time>
      </trkpt>
      <trkpt lat="43.23166" lon="0.084">
        <ele>314</ele>
        <time>2020-05-12T13:01:01Z</time>
      </trkpt>
      <trkpt lat="43.23177" lon="0.08371">
        <ele>314</ele>
        <time>2020-05-12T13:01:21Z</time>
      </trkpt>
      <trkpt lat="43.23177" lon="0.0836">
        <ele>314</ele>
        <time>2020-05-12T13:01:29Z</time>
      </trkpt>
      <trkpt lat="43.23174" lon="0.08333">
        <ele>314</ele>
        <time>2020-05-12T13:01:49Z</time>
      </trkpt>
      <trkpt lat="43.23199" lon="0.08276">
        <ele>314</ele>
        <time>2020-05-12T13:02:21Z</time>
      </trkpt>
      <trkpt lat="43.23213" lon="0.0824">
        <ele>313</ele>
        <time>2020-05-12T13:02:46Z</time>
      </trkpt>
      <trkpt lat="43.23223" lon="0.08197">
        <ele>313</ele>
        <time>2020-05-12T13:03:01Z</time>
      </trkpt>
      <trkpt lat="43.23227" lon="0.08178">
        <ele>313</ele>
        <time>2020-05-12T13:03:12Z</time>
      </trkpt>
      <trkpt lat="43.23247" lon="0.08182">
        <ele>312</ele>
        <time>2020-05-12T13:03:33Z</time>
      </trkpt>
      <trkpt lat="43.23287" lon="0.08205">
        <ele>313</ele>
        <time>2020-05-12T13:04:05Z</time>
      </trkpt>
      <trkpt lat="43.23301" lon="0.08209">
        <ele>313</ele>
        <time>2020-05-12T13:04:16Z</time>
      </trkpt>
      <trkpt lat="43.23309" lon="0.08206">
        <ele>313</ele>
        <time>2020-05-12T13:04:23Z</time>
      </trkpt>
      <trkpt lat="43.23325" lon="0.08208">
        <ele>313</ele>
        <time>2020-05-12T13:04:32Z</time>
      </trkpt>
      <trkpt lat="43.23344" lon="0.08202">
        <ele>312</ele>
        <time>2020-05-12T13:04:50Z</time>
      </trkpt>
      <trkpt lat="43.23357" lon="0.08203">
        <ele>312</ele>
        <time>2020-05-12T13:05:03Z</time>
      </trkpt>
      <trkpt lat="43.23369" lon="0.08198">
        <ele>312</ele>
        <time>2020-05-12T13:05:12Z</time>
      </trkpt>
      <trkpt lat="43.2337" lon="0.08189">
        <ele>312</ele>
        <time>2020-05-12T13:05:19Z</time>
      </trkpt>
      <trkpt lat="43.23374" lon="0.08182">
        <ele>312</ele>
        <time>2020-05-12T13:05:25Z</time>
      </trkpt>
    </trkseg>
  </trk>
</gpx>